• Join FlightAware (Why Join?)
  • Login
  • US Flag 
01:14PM EDT


 

Airport Tracker/Info


-or-


 

Live Flight TrackerFlight Track Log ✈ N785JP ✈ 18-Oct-2013 ✈ KSYR - 5B2

Flight Track Log - Related Links

Times and Time Zones

All times are in EDT time to prevent confusion due to time zone crossing. See the N785JP flight status page for this flight to view local times or setup timezone preferences in your user account.

Time Position Orientation Groundspeed Altitude Reporting Facility
EDT Latitude Longitude Course Direction KTS MPH feet Rate Location/Type
04:52PM 43.1069 -76.1517 268° West 121 139 2,100  Level Boston Center
04:53PM 43.1033 -76.1972 264° West 129 148 3,700 1,560 Climbing Boston Center
04:53PM 43.1053 -76.2000 314° West 136 157 3,800 1,560 Climbing Boston Center
04:54PM 43.1417 -76.1767 25° Northeast 177 204 5,400 1,500 Climbing Boston Center
04:55PM 43.1356 -76.1081 97° East 186 214 6,900 1,440 Climbing Boston Center
04:56PM 43.1275 -76.0306 98° East 191 220 8,300 1,380 Climbing Boston Center
04:57PM 43.1175 -75.9533 100° East 202 232 9,700 1,380 Climbing Boston Center
04:58PM 43.1117 -75.8703 95° East 207 238 11,200 1,320 Climbing Boston Center
04:59PM 43.1100 -75.7878 92° East 207 238 12,400 900 Climbing Boston Center
05:00PM 43.1083 -75.6939 91° East 225 259 13,000 240 Climbing Boston Center
05:01PM 43.1072 -75.5856 91° East 254 292 13,000  Level Boston Center
05:02PM 43.1019 -75.4803 94° East 271 312 13,000  Level Boston Center
05:03PM 43.0983 -75.3719 93° East 277 319 13,000  Level Boston Center
05:04PM 43.0969 -75.2639 91° East 282 325 13,000  Level Boston Center
05:05PM 43.0933 -75.1528 93° East 282 325 13,000  Level Boston Center
05:06PM 43.0897 -75.0444 93° East 282 325 13,000  Level Boston Center
05:07PM 43.0881 -74.9364 91° East 282 325 13,000  Level Boston Center
05:08PM 43.0839 -74.8367 93° East 288 331 13,000 -240 Level Boston Center
05:08PM 43.0831 -74.7711 91° East 289 333 12,600 -4,020 Descending Boston Center
05:09PM 43.0819 -74.7200 92° East 288 331 9,000 -1,020 Descending Boston Center
05:09PM 43.0806 -74.6831 93° East 290 334 11,900  Climbing Boston Center
05:10PM 43.0778 -74.6203 93° East 288 331 9,000 -720 Descending Boston Center
05:10PM 43.0767 -74.5664 92° East 299 344 11,200 1,740 Climbing Boston Center
05:11PM 43.0739 -74.4950 93° East 227 261 10,700 -780 Descending Boston Center
05:11PM 43.0722 -74.4667 95° East 288 331 10,500 -840 Descending Boston Center
05:12PM 43.0692 -74.4011 94° East 262 302 9,900 -1,020 Descending Boston Center
05:12PM 43.0700 -74.3614 88° East 276 318 9,500 -1,140 Descending Boston Center
05:13PM 43.0650 -74.2844 95° East 274 315 8,800 -1,140 Descending Boston Center
05:13PM 43.0653 -74.2589 89° East 276 318 8,400 -1,080 Descending Boston Center
05:14PM 43.0725 -74.1967 81° East 274 315 7,700 -1,200 Descending Boston Center
05:14PM 43.0753 -74.1569 85° East 267 307 7,200 -1,200 Descending Boston Center
05:15PM 43.0806 -74.0831 84° East 269 310 6,600 1,080 Descending Boston Center
05:16PM 43.0861 -73.9839 86° East 269 310 9,000 1,140 Climbing Boston Center
05:17PM 43.0936 -73.8844 84° East 269 310 9,000  Level Boston Center
05:18PM 43.0989 -73.7850 86° East 269 310 9,000  Level Boston Center
05:19PM 43.1042 -73.7056 85° East 269 310 9,000  Level Boston Center
05:20PM 43.1042 -73.7056 136° Southeast 269 310 9,000  Level Boston Center
05:22PM 43.1042 -73.7056 136° Southeast 269 310 9,000  Level Boston Center
05:25PM 43.0521 -73.8445 243° Southwest  Level FlightAware Approximate
05:32PM 43.0500 -73.8500 246° West  Level FlightAware Approximate
05:33PM 43.0507 -73.8616 246° West  Level Estimated